Terminal Aerodrome Forecast
Issued by NWS Twin Cities, MN

Home | Current Version | Previous Version | Graphics & Text | Print | Product List | Glossary On
Versions: 1 2 3 4 5 6 7 8 9 10 11 12 13 14 15 16 17 18 19 20 21 22 23 24 25 26 27 28 29 30 31 32
244
FTUS43 KMPX 260545
TAFMSP
TAF
KMSP 260545Z 2606/2712 28005KT P6SM VCSH FEW080 OVC180
     FM260800 31003KT P6SM -SHRA BKN050 OVC120
     FM261300 32004KT P6SM VCSH BKN040 OVC120
     FM261800 32006KT P6SM SCT040 OVC150
     FM270000 35005KT P6SM FEW050=

USA.gov is the U.S. government's official web portal to all federal, state and local government web resources and services.